Time;durP1;ratioP1;P1;durP2;ratioP2;P2;SDS_P1;SDS_P2;PMS_P1;PMS_P2;Temp;Humidity;BMP_temperature;BMP_pressure;BME280_temperature;BME280_humidity;BME280_pressure;Samples;Min_cycle;Max_cycle;Signal;HPM_P1;HPM_P2
2022/09/21 00:01:16;;;;;;;2.13;1.10;;;;;;;13.43;100.00;101578.22;2099699;28;20179;-63
2022/09/21 00:02:16;;;;;;;2.80;0.97;;;;;;;13.49;100.00;101579.31;2099563;28;20181;-62
2022/09/21 00:03:18;;;;;;;1.80;1.10;;;;;;;13.50;100.00;101578.09;2099567;28;20423;-63
2022/09/21 00:04:18;;;;;;;2.70;1.03;;;;;;;13.37;100.00;101568.78;2099524;28;20201;-63
2022/09/21 00:05:19;;;;;;;2.03;1.03;;;;;;;13.48;100.00;101576.94;2099544;28;20411;-63
2022/09/21 00:06:20;;;;;;;4.23;1.10;;;;;;;13.43;100.00;101575.44;2099521;28;20199;-63
2022/09/21 00:07:21;;;;;;;2.00;1.10;;;;;;;13.44;100.00;101574.25;2099577;28;20178;-62
2022/09/21 00:08:21;;;;;;;2.63;1.10;;;;;;;13.45;100.00;101588.94;2099656;28;20454;-63
2022/09/21 00:09:22;;;;;;;3.23;1.20;;;;;;;13.31;100.00;101558.59;2099497;28;20540;-64
2022/09/21 00:10:22;;;;;;;1.63;0.90;;;;;;;13.18;100.00;101536.19;2099537;28;20223;-63
2022/09/21 00:11:26;;;;;;;2.73;1.03;;;;;;;13.58;100.00;101584.28;2099551;28;20175;-62
2022/09/21 00:12:30;;;;;;;2.53;0.97;;;;;;;13.59;100.00;101583.88;2099493;28;20199;-62
2022/09/21 00:13:32;;;;;;;2.23;1.10;;;;;;;13.08;100.00;101508.56;2099521;28;20446;-62
2022/09/21 00:14:33;;;;;;;2.07;1.13;;;;;;;13.61;100.00;101583.41;2099478;28;20422;-62
2022/09/21 00:15:33;;;;;;;3.37;1.10;;;;;;;13.62;100.00;101587.81;2099445;28;20411;-62
2022/09/21 00:16:34;;;;;;;2.33;0.83;;;;;;;13.50;100.00;101566.16;2099451;28;20178;-62
2022/09/21 00:17:36;;;;;;;2.20;1.30;;;;;;;13.52;100.00;101578.44;2099438;28;20226;-62
2022/09/21 00:18:36;;;;;;;2.73;1.20;;;;;;;13.00;100.00;101501.56;2099435;28;20238;-62
2022/09/21 00:19:37;;;;;;;1.90;1.00;;;;;;;13.51;100.00;101576.06;2099431;28;20413;-63
2022/09/21 00:20:40;;;;;;;2.20;1.00;;;;;;;12.96;100.00;101498.09;2099517;28;20239;-63
2022/09/21 00:21:41;;;;;;;2.80;1.10;;;;;;;13.51;100.00;101582.44;2099383;28;20242;-63
2022/09/21 00:22:41;;;;;;;1.93;1.00;;;;;;;13.49;100.00;101581.28;2099405;28;20478;-62
2022/09/21 00:23:42;;;;;;;2.90;1.13;;;;;;;13.51;100.00;101581.63;2099410;28;20532;-63
2022/09/21 00:24:43;;;;;;;2.77;1.03;;;;;;;13.31;100.00;101542.69;2099624;28;20260;-62
2022/09/21 00:25:43;;;;;;;1.80;1.00;;;;;;;12.96;100.00;101509.22;2099389;28;20419;-63
2022/09/21 00:26:44;;;;;;;2.47;1.30;;;;;;;12.81;100.00;101489.19;2099243;28;20198;-62
2022/09/21 00:27:48;;;;;;;3.20;1.27;;;;;;;13.41;100.00;101579.84;2099390;28;20606;-62
2022/09/21 00:28:54;;;;;;;2.20;1.07;;;;;;;13.44;100.00;101577.03;2099400;28;20176;-63
2022/09/21 00:30:02;;;;;;;2.10;1.00;;;;;;;13.00;100.00;101510.72;2099372;28;20427;-63
2022/09/21 00:31:05;;;;;;;3.27;1.03;;;;;;;12.76;100.00;101461.09;2099512;28;20431;-62
2022/09/21 00:32:06;;;;;;;3.93;1.03;;;;;;;13.54;100.00;101580.78;2099530;28;20412;-62
2022/09/21 00:33:06;;;;;;;2.17;1.17;;;;;;;13.48;100.00;101582.50;2099345;28;20417;-62
2022/09/21 00:34:07;;;;;;;2.10;1.00;;;;;;;13.52;100.00;101580.44;2099321;28;20651;-62
2022/09/21 00:35:08;;;;;;;1.70;1.10;;;;;;;13.52;100.00;101581.22;2099348;28;20182;-62
2022/09/21 00:36:11;;;;;;;2.77;1.10;;;;;;;13.38;100.00;101572.38;2099440;28;20175;-62
2022/09/21 00:37:12;;;;;;;1.77;1.00;;;;;;;13.55;100.00;101583.16;2099340;28;20472;-62
2022/09/21 00:38:12;;;;;;;1.97;0.80;;;;;;;13.61;100.00;101587.00;2099348;28;20421;-62
2022/09/21 00:39:12;;;;;;;2.33;1.00;;;;;;;13.61;100.00;101581.44;2099293;28;20634;-62
2022/09/21 00:40:13;;;;;;;2.37;0.90;;;;;;;13.58;100.00;101585.06;2099324;28;20168;-62
2022/09/21 00:41:13;;;;;;;3.33;1.10;;;;;;;13.54;100.00;101581.59;2099253;28;20206;-62
2022/09/21 00:42:26;;;;;;;1.50;0.93;;;;;;;13.60;100.00;101588.22;2099280;28;20185;-62
2022/09/21 00:43:26;;;;;;;3.03;1.00;;;;;;;13.62;100.00;101579.44;2099430;28;20272;-62
2022/09/21 00:44:28;;;;;;;2.00;1.07;;;;;;;13.69;100.00;101576.50;2099335;28;20534;-63
2022/09/21 00:45:30;;;;;;;2.27;0.80;;;;;;;13.74;100.00;101579.53;2099326;28;20250;-62
2022/09/21 00:46:30;;;;;;;2.33;0.90;;;;;;;13.73;100.00;101577.22;2099254;28;20473;-63
2022/09/21 00:47:43;;;;;;;1.90;0.93;;;;;;;13.58;100.00;101557.22;2099331;28;20417;-62
2022/09/21 00:48:45;;;;;;;1.73;0.80;;;;;;;13.76;100.00;101577.13;2099211;28;20182;-62
2022/09/21 00:49:49;;;;;;;2.03;0.80;;;;;;;13.83;100.00;101571.38;2099419;28;20436;-62
2022/09/21 00:50:52;;;;;;;1.77;0.97;;;;;;;13.79;100.00;101564.34;2099285;28;20410;-62
2022/09/21 00:51:56;;;;;;;2.03;0.87;;;;;;;13.75;100.00;101566.41;2099206;28;20432;-62
2022/09/21 00:52:57;;;;;;;2.27;0.87;;;;;;;13.81;100.00;101571.06;2099393;28;20410;-61
2022/09/21 00:54:06;;;;;;;1.97;0.97;;;;;;;13.87;100.00;101571.31;2099165;28;20409;-62
2022/09/21 00:55:14;;;;;;;1.83;1.00;;;;;;;13.72;100.00;101537.41;2099354;28;20795;-62
2022/09/21 00:56:14;;;;;;;2.57;0.90;;;;;;;13.75;100.00;101563.63;2098464;28;20413;-63
2022/09/21 00:57:16;;;;;;;1.33;0.73;;;;;;;13.69;100.00;101557.00;2098510;28;20454;-62
2022/09/21 00:58:28;;;;;;;2.47;0.90;;;;;;;12.96;100.00;101454.34;2099135;28;20555;-63
2022/09/21 00:59:32;;;;;;;2.70;0.80;;;;;;;13.67;100.00;101532.34;2098693;28;20911;-62
2022/09/21 01:00:33;;;;;;;3.27;0.80;;;;;;;13.73;100.00;101555.69;2099148;28;20414;-62
2022/09/21 01:01:37;;;;;;;1.60;0.83;;;;;;;13.65;100.00;101556.28;2099258;28;20413;-62
2022/09/21 01:02:37;;;;;;;1.60;0.70;;;;;;;13.75;100.00;101555.28;2099144;28;20199;-62
2022/09/21 01:03:38;;;;;;;2.63;0.90;;;;;;;13.66;100.00;101550.28;2106773;28;20933;-62
2022/09/21 01:04:38;;;;;;;1.40;0.83;;;;;;;13.62;100.00;101546.78;2106879;28;20626;-62
2022/09/21 01:05:39;;;;;;;1.53;0.80;;;;;;;13.66;100.00;101546.72;2099264;28;20301;-62
2022/09/21 01:06:40;;;;;;;1.70;0.87;;;;;;;13.68;100.00;101545.06;2099101;28;20177;-62
2022/09/21 01:07:44;;;;;;;2.83;1.20;;;;;;;12.17;100.00;101313.72;2099040;28;20538;-60
2022/09/21 01:08:53;;;;;;;2.13;1.00;;;;;;;12.79;100.00;101437.97;2099092;28;20167;-59
2022/09/21 01:09:58;;;;;;;1.90;0.83;;;;;;;13.31;100.00;101514.84;2099316;28;20399;-59
2022/09/21 01:11:37;;;;;;;1.40;0.83;;;;;;;13.45;100.00;101547.16;2099023;28;20413;-59
2022/09/21 01:12:46;;;;;;;0.90;0.80;;;;;;;13.47;100.00;101550.31;2106774;28;20407;-59
2022/09/21 01:14:03;;;;;;;2.20;0.80;;;;;;;12.95;100.00;101480.56;2105841;28;20858;-59
2022/09/21 01:15:15;;;;;;;1.53;1.10;;;;;;;13.38;100.00;101542.53;2099046;28;20398;-62
2022/09/21 01:16:31;;;;;;;2.20;0.97;;;;;;;12.91;100.00;101488.19;2099096;28;20911;-59
2022/09/21 01:17:41;;;;;;;1.90;0.90;;;;;;;13.36;100.00;101544.97;2099183;28;20445;-59
2022/09/21 01:18:57;;;;;;;1.33;1.00;;;;;;;13.26;100.00;101545.16;2099188;28;20402;-61
2022/09/21 01:20:30;;;;;;;2.30;0.73;;;;;;;13.17;100.00;101551.31;2099124;28;20848;-59
2022/09/21 01:21:35;;;;;;;2.80;0.90;;;;;;;13.16;100.00;101548.97;2065408;28;20415;-59
2022/09/21 01:22:55;;;;;;;1.67;0.80;;;;;;;13.12;100.00;101553.81;2099228;28;20389;-62
2022/09/21 01:24:07;;;;;;;1.83;0.90;;;;;;;12.62;100.00;101478.03;2106700;28;20416;-61
2022/09/21 01:25:34;;;;;;;2.60;0.70;;;;;;;13.09;100.00;101544.31;2105392;28;20814;-62
2022/09/21 01:27:12;;;;;;;1.47;0.90;;;;;;;13.16;100.00;101546.97;2098898;28;20405;-62
2022/09/21 01:28:42;;;;;;;2.37;1.00;;;;;;;13.05;100.00;101548.38;2098892;28;20413;-62
2022/09/21 01:30:12;;;;;;;2.10;0.90;;;;;;;13.00;100.00;101551.66;2099073;28;20777;-62
2022/09/21 01:31:23;;;;;;;3.23;0.90;;;;;;;13.04;100.00;101557.94;2094289;28;20425;-62
2022/09/21 01:32:38;;;;;;;1.63;0.80;;;;;;;13.00;100.00;101548.88;2098428;28;20501;-59
2022/09/21 01:33:46;;;;;;;2.03;0.80;;;;;;;12.36;100.00;101467.81;2099107;28;20399;-60
2022/09/21 01:35:16;;;;;;;3.73;0.80;;;;;;;12.99;100.00;101548.09;2098886;28;20547;-60
2022/09/21 01:36:23;;;;;;;1.93;0.90;;;;;;;13.02;100.00;101543.69;2067826;28;20436;-60
2022/09/21 01:37:34;;;;;;;1.57;0.83;;;;;;;12.99;100.00;101541.72;2098764;28;20502;-59
2022/09/21 01:38:40;;;;;;;3.67;0.90;;;;;;;13.02;100.00;101552.78;2098958;28;20405;-62
2022/09/21 01:39:46;;;;;;;1.00;0.83;;;;;;;13.04;100.00;101541.25;2098981;28;20400;-62
2022/09/21 01:40:52;;;;;;;2.27;0.90;;;;;;;13.05;100.00;101545.59;2099049;28;20401;-62
2022/09/21 01:41:55;;;;;;;2.00;0.80;;;;;;;12.86;100.00;101510.19;2098921;28;20783;-61
2022/09/21 01:42:58;;;;;;;1.97;0.87;;;;;;;12.79;100.00;101515.84;2098794;28;20628;-60
2022/09/21 01:44:07;;;;;;;1.67;0.70;;;;;;;13.17;100.00;101545.75;2106485;28;20420;-62
2022/09/21 01:45:11;;;;;;;1.53;0.90;;;;;;;13.16;100.00;101540.63;2105542;28;20408;-62
2022/09/21 01:46:17;;;;;;;3.30;1.00;;;;;;;13.10;100.00;101543.09;2098762;28;20471;-62
2022/09/21 01:47:18;;;;;;;2.47;0.83;;;;;;;13.09;100.00;101544.31;2099015;28;20402;-61
2022/09/21 01:48:21;;;;;;;1.83;0.90;;;;;;;13.07;100.00;101543.94;2098847;28;20419;-62
2022/09/21 01:49:52;;;;;;;3.10;0.80;;;;;;;12.98;100.00;101532.63;2098836;28;20422;-62
2022/09/21 01:50:55;;;;;;;3.40;0.93;;;;;;;13.04;100.00;101547.59;2098615;28;20567;-61
2022/09/21 01:52:01;;;;;;;4.47;0.90;;;;;;;13.03;100.00;101550.81;2098720;28;20851;-62
2022/09/21 01:53:07;;;;;;;3.80;0.80;;;;;;;13.00;100.00;101534.94;2090537;28;20412;-61
2022/09/21 01:54:12;;;;;;;1.50;0.70;;;;;;;13.03;100.00;101543.25;2090483;28;20404;-62
2022/09/21 01:55:40;;;;;;;1.83;0.83;;;;;;;12.75;100.00;101504.03;2090476;28;20963;-62
2022/09/21 01:56:50;;;;;;;3.00;0.73;;;;;;;13.14;100.00;101543.03;2090158;28;20840;-61
2022/09/21 01:58:00;;;;;;;1.30;0.70;;;;;;;13.14;100.00;101545.81;2090506;28;20973;-61
2022/09/21 01:59:06;;;;;;;1.73;0.73;;;;;;;13.22;100.00;101552.81;2090458;28;20405;-61
2022/09/21 02:00:07;;;;;;;1.13;0.70;;;;;;;13.20;100.00;101539.31;2090412;28;20399;-61
2022/09/21 02:01:13;;;;;;;2.60;0.73;;;;;;;13.22;100.00;101550.03;2098665;28;20785;-61
2022/09/21 02:02:20;;;;;;;3.43;0.90;;;;;;;12.98;100.00;101529.84;2098637;28;20402;-61
2022/09/21 02:03:41;;;;;;;1.50;0.73;;;;;;;13.24;100.00;101544.81;2098654;28;20444;-61
2022/09/21 02:04:42;;;;;;;1.23;0.70;;;;;;;13.00;100.00;101512.69;2098828;28;20765;-61
2022/09/21 02:05:42;;;;;;;1.67;0.80;;;;;;;13.24;100.00;101544.81;2098605;28;20452;-62
2022/09/21 02:06:46;;;;;;;3.27;0.90;;;;;;;13.23;100.00;101544.03;2098600;28;20209;-62
2022/09/21 02:07:49;;;;;;;2.00;0.80;;;;;;;13.06;100.00;101511.78;2098785;28;20535;-62
2022/09/21 02:08:49;;;;;;;2.83;1.33;;;;;;;13.38;100.00;101545.31;2106281;28;20415;-62
2022/09/21 02:09:50;;;;;;;1.90;0.90;;;;;;;12.93;100.00;101485.00;2106390;28;20996;-61
2022/09/21 02:10:52;;;;;;;1.90;0.80;;;;;;;13.08;100.00;101514.13;2098427;28;20172;-61
2022/09/21 02:11:53;;;;;;;1.63;0.83;;;;;;;12.78;100.00;101465.03;2098048;28;20414;-61
2022/09/21 02:13:00;;;;;;;3.30;1.00;;;;;;;13.31;100.00;101544.66;2098517;28;20410;-61
2022/09/21 02:14:00;;;;;;;2.63;0.80;;;;;;;13.28;100.00;101549.09;2098541;28;20157;-61
2022/09/21 02:15:02;;;;;;;1.43;0.90;;;;;;;13.29;100.00;101545.13;2098535;28;20471;-62
2022/09/21 02:16:05;;;;;;;1.77;0.80;;;;;;;13.29;100.00;101547.09;2098519;28;20179;-61
2022/09/21 02:17:33;;;;;;;2.80;0.80;;;;;;;13.25;100.00;101547.19;2098500;28;20844;-62
2022/09/21 02:19:15;;;;;;;1.30;0.70;;;;;;;13.29;100.00;101555.44;2098540;28;20465;-61
2022/09/21 02:20:16;;;;;;;1.80;0.90;;;;;;;13.23;100.00;101555.16;2072829;28;20428;-62
2022/09/21 02:21:43;;;;;;;1.60;0.80;;;;;;;13.25;100.00;101560.31;2090794;28;20501;-62
2022/09/21 02:23:12;;;;;;;1.80;0.93;;;;;;;13.27;100.00;101555.88;2098503;28;20791;-62
2022/09/21 02:24:23;;;;;;;1.37;0.63;;;;;;;13.31;100.00;101575.28;2098479;28;20567;-61
2022/09/21 02:25:40;;;;;;;2.10;0.70;;;;;;;13.08;100.00;101517.72;2098556;28;20390;-62
2022/09/21 02:26:54;;;;;;;2.50;0.80;;;;;;;13.25;100.00;101563.09;2098314;28;20401;-62
2022/09/21 02:28:05;;;;;;;2.27;0.87;;;;;;;13.31;100.00;101556.59;2098406;28;20427;-61
2022/09/21 02:29:24;;;;;;;2.87;0.70;;;;;;;13.29;100.00;101561.03;2098489;28;20784;-62
2022/09/21 02:30:26;;;;;;;2.70;0.93;;;;;;;13.29;100.00;101559.03;2098411;28;20420;-61
2022/09/21 02:31:32;;;;;;;1.50;0.80;;;;;;;13.31;100.00;101561.38;2098372;28;20425;-61
2022/09/21 02:32:49;;;;;;;2.27;0.93;;;;;;;12.80;100.00;101490.41;2098364;28;20402;-61
2022/09/21 02:34:00;;;;;;;1.47;0.80;;;;;;;13.37;100.00;101557.66;2098406;28;20471;-61
2022/09/21 02:35:08;;;;;;;1.10;0.70;;;;;;;13.44;100.00;101563.09;2098458;28;20486;-61
2022/09/21 02:36:27;;;;;;;2.37;0.80;;;;;;;13.45;100.00;101563.88;2098637;28;20753;-61
2022/09/21 02:37:41;;;;;;;2.20;0.80;;;;;;;13.44;100.00;101562.31;2098427;28;20527;-61
2022/09/21 02:38:57;;;;;;;4.20;1.33;;;;;;;13.50;100.00;101557.81;2106091;28;20436;-60
2022/09/21 02:40:03;;;;;;;2.10;0.80;;;;;;;12.91;100.00;101471.50;2104101;28;20424;-61
2022/09/21 02:41:15;;;;;;;2.20;0.80;;;;;;;13.51;100.00;101562.94;2097968;28;20395;-61
2022/09/21 02:42:25;;;;;;;2.07;0.77;;;;;;;13.56;100.00;101568.00;2098462;28;20394;-61
2022/09/21 02:43:40;;;;;;;1.40;0.80;;;;;;;13.58;100.00;101568.34;2098343;28;20842;-61
2022/09/21 02:45:05;;;;;;;3.90;1.00;;;;;;;13.61;100.00;101567.50;2098412;28;20937;-61
2022/09/21 02:46:13;;;;;;;3.33;0.90;;;;;;;13.63;100.00;101565.06;2098426;28;20398;-61
2022/09/21 02:47:36;;;;;;;2.07;1.07;;;;;;;13.60;100.00;101559.56;2098518;28;20475;-61
2022/09/21 02:48:44;;;;;;;1.53;1.00;;;;;;;13.45;100.00;101553.53;2089922;28;20424;-61
2022/09/21 02:49:52;;;;;;;2.60;0.90;;;;;;;13.52;100.00;101564.50;2098530;28;20418;-61
2022/09/21 02:50:56;;;;;;;1.83;0.90;;;;;;;13.49;100.00;101559.81;2098489;28;20396;-61
2022/09/21 02:52:00;;;;;;;1.83;0.90;;;;;;;13.11;100.00;101513.28;2098217;28;20500;-61
2022/09/21 02:53:04;;;;;;;1.83;1.07;;;;;;;13.55;100.00;101569.22;2098273;28;20461;-61
2022/09/21 02:54:09;;;;;;;2.83;0.70;;;;;;;13.58;100.00;101564.81;2098290;28;20923;-61
2022/09/21 02:55:13;;;;;;;3.67;0.90;;;;;;;13.59;100.00;101569.16;2098228;28;20925;-61
2022/09/21 02:56:15;;;;;;;2.17;1.00;;;;;;;13.63;100.00;101562.28;2098195;28;20427;-61
2022/09/21 02:57:19;;;;;;;2.63;1.00;;;;;;;13.63;100.00;101556.72;2098164;28;20912;-61
2022/09/21 02:58:20;;;;;;;3.10;1.10;;;;;;;13.51;100.00;101548.22;2098177;28;20488;-61
2022/09/21 02:59:22;;;;;;;2.33;1.10;;;;;;;12.85;100.00;101444.59;2098165;28;20426;-61
2022/09/21 03:00:22;;;;;;;2.73;0.90;;;;;;;13.62;100.00;101560.72;2097471;28;20420;-62
2022/09/21 03:01:25;;;;;;;2.87;0.93;;;;;;;13.63;100.00;101565.06;2097678;28;20484;-61
2022/09/21 03:02:35;;;;;;;1.90;0.90;;;;;;;13.67;100.00;101562.19;2098334;28;20166;-61
2022/09/21 03:03:36;;;;;;;2.17;0.80;;;;;;;13.58;100.00;101534.94;2098341;28;20400;-60
2022/09/21 03:04:38;;;;;;;2.30;0.90;;;;;;;13.63;100.00;101565.06;2098170;28;20413;-61
2022/09/21 03:05:39;;;;;;;3.30;0.90;;;;;;;13.65;100.00;101567.44;2098184;28;20202;-61
2022/09/21 03:06:40;;;;;;;3.27;0.90;;;;;;;13.62;100.00;101569.06;2098164;28;20413;-60
2022/09/21 03:07:40;;;;;;;2.57;1.00;;;;;;;13.59;100.00;101561.59;2093986;28;20183;-60
2022/09/21 03:08:41;;;;;;;1.90;0.90;;;;;;;12.90;100.00;101458.81;2089873;28;20417;-60
2022/09/21 03:09:41;;;;;;;2.50;0.77;;;;;;;13.61;100.00;101564.72;2089211;28;20214;-61
2022/09/21 03:10:42;;;;;;;3.10;0.90;;;;;;;13.32;100.00;101518.41;2089419;28;20253;-61
2022/09/21 03:11:43;;;;;;;3.23;1.00;;;;;;;13.62;100.00;101560.72;2089896;28;20185;-60
2022/09/21 03:12:44;;;;;;;1.87;0.97;;;;;;;13.45;100.00;101538.81;2089876;28;20197;-60
2022/09/21 03:13:45;;;;;;;1.43;0.70;;;;;;;13.62;100.00;101557.16;2089977;28;20223;-61
2022/09/21 03:14:46;;;;;;;2.80;0.90;;;;;;;13.62;100.00;101552.34;2089819;28;20420;-61
2022/09/21 03:15:46;;;;;;;3.87;0.70;;;;;;;13.64;100.00;101560.28;2089878;28;20175;-61
2022/09/21 03:16:47;;;;;;;2.07;1.00;;;;;;;13.43;100.00;101516.97;2089195;28;20741;-61
2022/09/21 03:17:47;;;;;;;1.97;1.07;;;;;;;13.46;100.00;101532.03;2090925;28;20287;-60
2022/09/21 03:18:47;;;;;;;2.40;0.97;;;;;;;12.72;100.00;101413.09;2098072;28;20334;-61
2022/09/21 03:19:48;;;;;;;4.10;0.97;;;;;;;13.55;100.00;101560.09;2098133;28;20179;-60
2022/09/21 03:20:49;;;;;;;1.70;0.70;;;;;;;13.47;100.00;101556.66;2098257;28;20171;-61
2022/09/21 03:21:50;;;;;;;1.90;0.80;;;;;;;13.46;100.00;101560.66;2098212;28;20695;-61
2022/09/21 03:22:50;;;;;;;1.73;0.90;;;;;;;13.52;100.00;101558.94;2097939;28;20190;-60
2022/09/21 03:23:51;;;;;;;1.83;0.93;;;;;;;13.55;100.00;101557.28;2098107;28;20173;-61
2022/09/21 03:24:52;;;;;;;2.93;1.00;;;;;;;13.24;100.00;101516.97;2098116;28;20174;-61
2022/09/21 03:25:53;;;;;;;2.27;0.90;;;;;;;12.86;100.00;101474.00;2097406;28;20252;-60
2022/09/21 03:26:53;;;;;;;1.53;0.80;;;;;;;13.00;100.00;101494.00;2097334;28;20918;-61
2022/09/21 03:27:55;;;;;;;1.73;0.90;;;;;;;13.37;100.00;101554.88;2098072;28;20421;-60
2022/09/21 03:28:56;;;;;;;1.63;1.00;;;;;;;13.35;100.00;101564.88;2097868;28;20695;-61
2022/09/21 03:29:56;;;;;;;1.30;0.80;;;;;;;13.33;100.00;101556.19;2098063;28;20793;-60
2022/09/21 03:30:57;;;;;;;2.47;0.97;;;;;;;13.23;100.00;101557.94;2105782;28;20168;-60
2022/09/21 03:31:57;;;;;;;3.27;0.87;;;;;;;12.90;100.00;101520.00;2105887;28;20201;-60
2022/09/21 03:32:58;;;;;;;1.73;0.70;;;;;;;13.13;100.00;101555.38;2098217;28;20263;-61
2022/09/21 03:33:58;;;;;;;1.80;0.77;;;;;;;13.12;100.00;101559.38;2098196;28;20180;-60
2022/09/21 03:34:59;;;;;;;1.47;0.80;;;;;;;13.13;100.00;101564.53;2098049;28;20258;-60
2022/09/21 03:35:59;;;;;;;2.13;1.10;;;;;;;13.06;100.00;101563.88;2098074;28;20210;-61
2022/09/21 03:37:01;;;;;;;2.53;0.90;;;;;;;13.06;100.00;101570.22;2105672;28;20719;-61
2022/09/21 03:38:02;;;;;;;1.73;1.10;;;;;;;13.01;100.00;101565.13;2105630;28;20261;-61
2022/09/21 03:39:02;;;;;;;1.83;0.90;;;;;;;12.44;100.00;101470.03;2097998;28;20411;-61
2022/09/21 03:40:03;;;;;;;2.13;0.97;;;;;;;13.03;100.00;101564.72;2098031;28;20198;-61
2022/09/21 03:41:04;;;;;;;2.87;1.00;;;;;;;12.87;100.00;101550.69;2098114;28;20206;-61
2022/09/21 03:42:05;;;;;;;2.33;0.80;;;;;;;12.91;100.00;101565.31;2098079;28;20264;-60
2022/09/21 03:43:05;;;;;;;1.33;0.90;;;;;;;12.95;100.00;101564.03;2098018;28;20995;-60
2022/09/21 03:44:06;;;;;;;2.83;0.87;;;;;;;12.26;100.00;101452.88;2098254;28;20259;-60
2022/09/21 03:45:08;;;;;;;2.50;1.13;;;;;;;12.88;100.00;101544.69;2098010;28;20256;-60
2022/09/21 03:46:08;;;;;;;3.90;1.37;;;;;;;12.99;100.00;101559.22;2098023;28;20183;-61
2022/09/21 03:47:08;;;;;;;1.57;1.00;;;;;;;12.94;100.00;101570.81;2098008;28;20425;-61
2022/09/21 03:48:10;;;;;;;1.83;1.10;;;;;;;12.83;100.00;101541.63;2098024;28;20191;-60
2022/09/21 03:49:11;;;;;;;1.77;0.80;;;;;;;12.93;100.00;101558.13;2098015;28;20172;-60
2022/09/21 03:50:11;;;;;;;3.63;1.13;;;;;;;12.95;100.00;101566.03;2098001;28;20410;-60
2022/09/21 03:51:11;;;;;;;1.40;0.90;;;;;;;12.96;100.00;101564.88;2098095;28;20168;-60
2022/09/21 03:52:12;;;;;;;1.23;0.80;;;;;;;12.91;100.00;101566.09;2097955;28;20200;-60
2022/09/21 03:53:13;;;;;;;2.43;1.10;;;;;;;12.86;100.00;101569.38;2105585;28;20262;-60
2022/09/21 03:54:13;;;;;;;1.87;1.00;;;;;;;12.78;100.00;101570.72;2106360;28;20179;-60
2022/09/21 03:55:14;;;;;;;3.47;0.97;;;;;;;12.74;100.00;101560.84;2105679;28;20173;-60
2022/09/21 03:56:14;;;;;;;2.47;1.10;;;;;;;12.74;100.00;101571.97;2105736;28;20717;-61
2022/09/21 03:57:15;;;;;;;1.43;0.90;;;;;;;12.75;100.00;101570.78;2106256;28;20195;-61
2022/09/21 03:58:15;;;;;;;2.87;0.97;;;;;;;12.68;100.00;101577.25;2106389;28;20179;-61
2022/09/21 03:59:16;;;;;;;1.27;0.77;;;;;;;12.61;100.00;101552.31;2106301;28;20167;-61
2022/09/21 04:00:17;;;;;;;3.83;1.10;;;;;;;12.40;100.00;101527.66;2106526;28;20265;-60
2022/09/21 04:01:18;;;;;;;2.07;0.97;;;;;;;12.68;100.00;101554.19;2106260;28;20182;-61
2022/09/21 04:02:18;;;;;;;3.40;1.00;;;;;;;12.85;100.00;101569.78;2099021;28;20247;-60
2022/09/21 04:03:19;;;;;;;3.53;1.10;;;;;;;12.84;100.00;101574.56;2097960;28;20315;-60
2022/09/21 04:04:20;;;;;;;2.10;1.20;;;;;;;12.20;100.00;101485.13;2098065;28;20181;-60
2022/09/21 04:05:21;;;;;;;1.90;0.97;;;;;;;12.79;100.00;101566.72;2097954;28;20179;-61
2022/09/21 04:06:22;;;;;;;2.40;1.00;;;;;;;12.90;100.00;101577.63;2097878;28;20417;-60
2022/09/21 04:07:22;;;;;;;1.33;1.00;;;;;;;12.88;100.00;101571.72;2097923;28;20972;-60
2022/09/21 04:08:23;;;;;;;2.63;1.00;;;;;;;12.89;100.00;101571.31;2097860;28;20225;-60
2022/09/21 04:09:23;;;;;;;1.53;0.90;;;;;;;12.84;100.00;101577.34;2105725;28;20266;-61
2022/09/21 04:10:28;;;;;;;3.00;1.00;;;;;;;12.83;100.00;101572.22;2105439;28;20172;-61
2022/09/21 04:11:28;;;;;;;1.67;0.70;;;;;;;12.77;100.00;101569.16;2097928;28;20207;-60
2022/09/21 04:12:30;;;;;;;4.27;1.13;;;;;;;12.74;100.00;101570.00;2097930;28;20406;-60
2022/09/21 04:13:30;;;;;;;2.13;0.80;;;;;;;12.75;100.00;101582.69;2097878;28;20175;-61
2022/09/21 04:14:30;;;;;;;2.50;1.10;;;;;;;12.58;100.00;101552.41;2097925;28;20409;-61
2022/09/21 04:15:31;;;;;;;2.40;0.90;;;;;;;12.72;100.00;101568.84;2097815;28;20637;-60
2022/09/21 04:16:31;;;;;;;2.03;1.20;;;;;;;12.75;100.00;101590.25;2097873;28;20178;-61
2022/09/21 04:17:33;;;;;;;1.70;1.03;;;;;;;12.70;100.00;101597.06;2097823;28;20194;-61
2022/09/21 04:18:33;;;;;;;2.87;0.97;;;;;;;12.72;100.00;101594.66;2097847;28;20207;-61
2022/09/21 04:19:34;;;;;;;2.50;0.90;;;;;;;12.75;100.00;101590.25;2097839;28;20421;-61
2022/09/21 04:20:34;;;;;;;1.60;0.90;;;;;;;12.79;100.00;101594.53;2097841;28;20573;-61
2022/09/21 04:21:35;;;;;;;2.27;1.20;;;;;;;12.73;100.00;101599.00;2097831;28;20178;-61
2022/09/21 04:22:36;;;;;;;2.00;1.00;;;;;;;12.18;100.00;101517.31;2099065;28;20654;-61
2022/09/21 04:23:36;;;;;;;2.10;1.00;;;;;;;12.20;100.00;101534.38;2105054;28;20178;-61
2022/09/21 04:24:39;;;;;;;2.53;1.10;;;;;;;12.53;100.00;101608.47;2097952;28;20422;-61
2022/09/21 04:25:40;;;;;;;1.77;1.00;;;;;;;12.47;100.00;101608.19;2097800;28;20199;-61
2022/09/21 04:26:41;;;;;;;1.30;1.00;;;;;;;12.48;100.00;101612.53;2097391;28;20414;-62
2022/09/21 04:27:42;;;;;;;2.57;1.10;;;;;;;12.32;100.00;101589.38;2101253;28;20167;-61
2022/09/21 04:28:42;;;;;;;1.80;1.27;;;;;;;12.60;100.00;101613.94;2106002;28;20180;-61
2022/09/21 04:29:43;;;;;;;2.27;1.10;;;;;;;12.58;100.00;101608.00;2100509;28;20417;-61
2022/09/21 04:30:44;;;;;;;3.80;1.27;;;;;;;12.58;100.00;101611.59;2097643;28;20175;-60
2022/09/21 04:31:44;;;;;;;4.10;1.10;;;;;;;12.65;100.00;101613.47;2097554;28;20927;-61
2022/09/21 04:32:45;;;;;;;2.33;1.53;;;;;;;12.05;100.00;101519.13;2097617;28;20259;-60
2022/09/21 04:33:56;;;;;;;2.97;1.53;;;;;;;12.33;100.00;101543.69;2097878;28;20753;-61
2022/09/21 04:34:57;;;;;;;2.17;1.27;;;;;;;12.73;100.00;101612.91;2106849;28;20166;-60
2022/09/21 04:35:58;;;;;;;2.40;1.60;;;;;;;12.73;100.00;101615.69;2106426;28;20409;-61
2022/09/21 04:36:58;;;;;;;4.53;1.50;;;;;;;12.80;100.00;101620.38;2099071;28;20177;-61
2022/09/21 04:37:59;;;;;;;3.60;1.87;;;;;;;12.04;100.00;101492.56;2102099;28;20436;-60
2022/09/21 04:38:59;;;;;;;4.33;1.93;;;;;;;12.76;100.00;101600.16;2107520;28;20271;-61
2022/09/21 04:40:00;;;;;;;4.57;1.40;;;;;;;12.94;100.00;101611.75;2107341;28;20530;-60
2022/09/21 04:41:02;;;;;;;5.53;2.23;;;;;;;12.04;100.00;101489.78;2101703;28;20205;-60
2022/09/21 04:42:03;;;;;;;4.20;2.00;;;;;;;12.96;100.00;101612.16;2099033;28;20179;-60
2022/09/21 04:43:03;;;;;;;3.40;2.27;;;;;;;13.00;100.00;101608.09;2099068;28;20410;-61
2022/09/21 04:44:04;;;;;;;1.77;1.10;;;;;;;12.88;100.00;101611.47;2103313;28;20432;-60
2022/09/21 04:45:05;;;;;;;2.30;1.30;;;;;;;12.77;100.00;101604.50;2098977;28;20619;-60
2022/09/21 04:46:08;;;;;;;3.67;1.40;;;;;;;12.39;100.00;101530.88;2098700;28;20263;-60
2022/09/21 04:47:08;;;;;;;1.80;1.20;;;;;;;12.99;100.00;101617.66;2098633;28;20173;-61
2022/09/21 04:48:09;;;;;;;3.20;1.40;;;;;;;12.97;100.00;101611.72;2098850;28;20425;-61
2022/09/21 04:49:10;;;;;;;4.17;1.77;;;;;;;12.44;100.00;101542.31;2098821;28;20180;-61
2022/09/21 04:50:10;;;;;;;4.13;1.40;;;;;;;13.08;100.00;101608.75;2098763;28;20229;-61
2022/09/21 04:51:12;;;;;;;3.90;1.60;;;;;;;13.05;100.00;101620.72;2098130;28;20176;-60
2022/09/21 04:52:13;;;;;;;2.27;1.40;;;;;;;13.00;100.00;101610.88;2098386;28;20179;-60
2022/09/21 04:53:13;;;;;;;2.93;1.20;;;;;;;12.89;100.00;101615.81;2098370;28;20415;-60
2022/09/21 04:54:14;;;;;;;9.97;5.03;;;;;;;12.95;100.00;101625.25;2098557;28;20255;-60
2022/09/21 04:55:15;;;;;;;5.63;3.17;;;;;;;12.78;100.00;101589.38;2092563;28;20180;-60
2022/09/21 04:56:16;;;;;;;3.87;2.10;;;;;;;12.98;100.00;101623.63;2090256;28;20170;-60
2022/09/21 04:57:17;;;;;;;3.97;2.87;;;;;;;12.97;100.00;101628.41;2095094;28;20450;-60
2022/09/21 04:58:17;;;;;;;2.23;1.63;;;;;;;12.66;100.00;101565.75;2098481;28;20639;-60